Time;durP1;ratioP1;P1;durP2;ratioP2;P2;SDS_P1;SDS_P2;PMS_P1;PMS_P2;Temp;Humidity;BMP_temperature;BMP_pressure;BME280_temperature;BME280_humidity;BME280_pressure;Samples;Min_cycle;Max_cycle;Signal;HPM_P1;HPM_P2
2023/12/21 00:02:06;;;;;;;10.95;1.92;;;10.00;99.90;;;;;;4996921;28;20050;-74
2023/12/21 00:04:32;;;;;;;11.73;1.35;;;10.00;99.90;;;;;;4987514;28;20034;-76
2023/12/21 00:06:57;;;;;;;15.98;2.45;;;10.00;99.90;;;;;;4986485;28;20121;-73
2023/12/21 00:09:23;;;;;;;7.60;0.95;;;10.00;99.90;;;;;;4988205;28;20029;-74
2023/12/21 00:11:49;;;;;;;8.48;0.93;;;10.00;99.90;;;;;;4985145;28;20045;-74
2023/12/21 00:14:14;;;;;;;7.28;1.05;;;10.00;99.90;;;;;;4998259;28;20160;-73
2023/12/21 00:16:40;;;;;;;4.15;1.00;;;10.00;99.90;;;;;;4995170;28;20494;-76
2023/12/21 00:19:05;;;;;;;9.52;1.40;;;10.00;99.90;;;;;;4987209;28;20046;-76
2023/12/21 00:21:31;;;;;;;13.77;0.95;;;10.00;99.90;;;;;;4986718;28;20050;-75
2023/12/21 00:23:56;;;;;;;4.97;1.10;;;10.10;99.90;;;;;;4996667;28;20406;-75
2023/12/21 00:26:22;;;;;;;5.88;1.45;;;10.00;99.90;;;;;;4985594;28;20110;-74
2023/12/21 00:28:48;;;;;;;5.50;1.20;;;10.00;99.90;;;;;;4988018;28;20649;-76
2023/12/21 00:31:13;;;;;;;5.22;0.88;;;10.00;99.90;;;;;;4986854;28;20042;-73
2023/12/21 00:33:39;;;;;;;9.15;1.98;;;10.00;99.90;;;;;;4984345;28;20108;-75
2023/12/21 00:36:05;;;;;;;11.25;1.75;;;10.10;99.90;;;;;;4986926;28;20081;-75
2023/12/21 00:38:30;;;;;;;7.70;0.88;;;10.00;99.90;;;;;;4997489;28;20165;-74
2023/12/21 00:40:59;;;;;;;9.73;1.15;;;10.00;99.90;;;;;;4985982;28;20064;-73
2023/12/21 00:43:25;;;;;;;13.60;1.77;;;10.10;99.90;;;;;;4986410;28;20863;-73
2023/12/21 00:45:50;;;;;;;6.68;0.88;;;10.10;99.90;;;;;;4987257;28;20141;-74
2023/12/21 00:48:17;;;;;;;9.98;1.00;;;10.10;99.90;;;;;;4983806;28;20117;-72
2023/12/21 00:50:42;;;;;;;11.15;1.30;;;10.10;99.90;;;;;;4985677;28;20045;-75
2023/12/21 00:53:08;;;;;;;3.08;0.93;;;10.10;99.90;;;;;;4987500;28;20022;-75
2023/12/21 00:55:34;;;;;;;7.10;1.30;;;10.10;99.90;;;;;;4985479;28;20054;-75
2023/12/21 00:57:59;;;;;;;7.60;0.95;;;10.00;99.90;;;;;;4985724;28;20697;-75
2023/12/21 01:00:25;;;;;;;9.88;1.40;;;10.10;99.90;;;;;;4984932;28;20045;-76
2023/12/21 01:02:50;;;;;;;10.57;1.33;;;10.10;99.90;;;;;;4996454;28;20038;-73
2023/12/21 01:05:16;;;;;;;10.90;1.23;;;10.10;99.90;;;;;;4987199;28;20042;-76
2023/12/21 01:07:42;;;;;;;7.65;0.85;;;10.10;99.90;;;;;;4986888;28;20176;-75
2023/12/21 01:10:08;;;;;;;10.55;1.73;;;10.10;99.90;;;;;;4984459;28;20448;-76
2023/12/21 01:12:34;;;;;;;7.97;0.85;;;10.10;99.90;;;;;;4986539;28;20570;-73
2023/12/21 01:15:01;;;;;;;12.32;2.10;;;10.10;99.90;;;;;;4985171;28;20124;-75
2023/12/21 01:17:26;;;;;;;3.90;0.77;;;10.10;99.90;;;;;;4983599;28;20030;-73
2023/12/21 01:19:52;;;;;;;4.43;0.90;;;10.10;99.90;;;;;;4997774;28;20651;-74
2023/12/21 01:22:19;;;;;;;6.40;0.75;;;10.20;99.90;;;;;;4986392;28;20037;-74
2023/12/21 01:24:45;;;;;;;7.00;1.83;;;10.10;99.90;;;;;;4983855;28;20034;-74
2023/12/21 01:27:10;;;;;;;12.65;1.48;;;10.10;99.90;;;;;;4987011;28;20075;-74
2023/12/21 01:29:36;;;;;;;8.23;0.88;;;10.10;99.90;;;;;;4992128;28;20038;-78
2023/12/21 01:32:02;;;;;;;8.63;1.13;;;10.20;99.90;;;;;;4986408;28;20398;-74
2023/12/21 01:34:27;;;;;;;8.63;0.98;;;10.20;99.90;;;;;;4985167;28;20069;-73
2023/12/21 01:36:53;;;;;;;6.68;1.27;;;10.10;99.90;;;;;;4984940;28;20517;-73
2023/12/21 01:39:18;;;;;;;4.50;0.50;;;10.10;99.90;;;;;;4984063;28;20045;-74
2023/12/21 01:41:44;;;;;;;4.50;0.82;;;10.10;99.90;;;;;;4982873;28;20038;-75
2023/12/21 01:44:09;;;;;;;6.28;1.00;;;10.10;99.90;;;;;;4983557;28;20065;-75
2023/12/21 01:46:35;;;;;;;4.00;0.85;;;10.10;99.90;;;;;;4997456;28;20042;-74
2023/12/21 01:49:01;;;;;;;5.47;0.80;;;10.10;99.90;;;;;;4984176;28;20045;-74
2023/12/21 01:51:27;;;;;;;3.30;0.70;;;10.10;99.90;;;;;;4982678;28;20058;-75
2023/12/21 01:53:53;;;;;;;10.68;0.90;;;10.20;99.90;;;;;;4981127;28;20069;-74
2023/12/21 01:56:20;;;;;;;15.20;2.45;;;10.10;99.90;;;;;;4985460;28;20030;-75
2023/12/21 01:58:50;;;;;;;8.20;1.35;;;10.20;99.90;;;;;;4982507;28;20569;-75
2023/12/21 02:01:19;;;;;;;19.25;2.38;;;10.10;99.90;;;;;;4985169;28;20034;-74
2023/12/21 02:03:44;;;;;;;4.70;0.80;;;10.20;99.90;;;;;;4992984;28;20125;-74
2023/12/21 02:06:10;;;;;;;6.20;0.63;;;10.20;99.90;;;;;;4983334;28;20145;-76
2023/12/21 02:08:36;;;;;;;9.27;1.25;;;10.10;99.90;;;;;;4993020;28;20034;-79
2023/12/21 02:11:07;;;;;;;6.15;1.35;;;10.10;99.90;;;;;;4994640;28;20041;-75
2023/12/21 02:13:33;;;;;;;6.43;0.90;;;10.20;99.90;;;;;;4983924;28;20034;-74
2023/12/21 02:16:06;;;;;;;4.18;0.70;;;10.20;99.90;;;;;;4995135;28;20521;-75
2023/12/21 02:18:32;;;;;;;11.80;1.05;;;10.10;99.90;;;;;;4983942;28;20034;-75
2023/12/21 02:20:59;;;;;;;7.30;1.00;;;10.10;99.90;;;;;;4985348;28;20022;-74
2023/12/21 02:23:29;;;;;;;8.13;1.38;;;10.10;99.90;;;;;;4994104;28;20370;-74
2023/12/21 02:25:55;;;;;;;3.60;0.98;;;10.10;99.90;;;;;;4984708;28;20034;-76
2023/12/21 02:28:21;;;;;;;6.20;1.35;;;10.20;99.90;;;;;;4987771;28;20081;-74
2023/12/21 02:30:47;;;;;;;7.65;0.82;;;10.20;99.90;;;;;;4979881;28;20058;-73
2023/12/21 02:33:13;;;;;;;5.03;1.48;;;10.20;99.90;;;;;;4984260;28;20030;-71
2023/12/21 02:35:39;;;;;;;5.53;1.42;;;10.20;99.90;;;;;;4987481;28;20045;-72
2023/12/21 02:38:04;;;;;;;7.07;1.00;;;10.20;99.90;;;;;;4987822;28;20030;-75
2023/12/21 02:40:30;;;;;;;8.43;1.23;;;10.20;99.90;;;;;;4987074;28;20034;-75
2023/12/21 02:42:56;;;;;;;11.73;1.75;;;10.30;99.90;;;;;;4984130;28;20034;-72
2023/12/21 02:45:21;;;;;;;10.43;1.20;;;10.20;99.90;;;;;;4984122;28;20033;-71
2023/12/21 02:47:47;;;;;;;8.80;1.00;;;10.20;99.90;;;;;;4983929;28;20537;-73
2023/12/21 02:50:12;;;;;;;9.50;1.50;;;10.20;99.90;;;;;;4986296;28;20057;-76
2023/12/21 02:52:38;;;;;;;10.13;1.70;;;10.20;99.90;;;;;;4987197;28;20038;-75
2023/12/21 02:55:04;;;;;;;7.30;1.20;;;10.20;99.90;;;;;;4987673;28;20402;-74
2023/12/21 02:57:30;;;;;;;4.85;0.90;;;10.20;99.90;;;;;;5005130;28;20073;-74
2023/12/21 02:59:56;;;;;;;6.45;1.40;;;10.20;99.90;;;;;;4985512;28;20073;-73
2023/12/21 03:02:21;;;;;;;6.10;0.93;;;10.20;99.90;;;;;;4973743;28;20073;-74
2023/12/21 03:04:47;;;;;;;6.55;2.00;;;10.20;99.90;;;;;;4984091;28;20148;-74
2023/12/21 03:07:12;;;;;;;3.85;0.88;;;10.30;99.90;;;;;;4984893;28;20110;-74
2023/12/21 03:09:38;;;;;;;6.38;0.90;;;10.30;99.90;;;;;;4984733;28;20047;-75
2023/12/21 03:12:04;;;;;;;5.50;1.25;;;10.30;99.90;;;;;;4997353;28;20062;-72
2023/12/21 03:14:29;;;;;;;6.90;1.60;;;10.30;99.90;;;;;;4983233;28;20057;-73
2023/12/21 03:16:55;;;;;;;8.70;1.45;;;10.30;99.90;;;;;;4984818;28;20486;-73
2023/12/21 03:19:20;;;;;;;9.85;1.67;;;10.30;99.90;;;;;;4985749;28;20678;-75
2023/12/21 03:21:46;;;;;;;7.88;1.10;;;10.20;99.90;;;;;;4985860;28;20932;-73
2023/12/21 03:24:11;;;;;;;11.05;1.13;;;10.20;99.90;;;;;;4987401;28;20450;-73
2023/12/21 03:26:37;;;;;;;5.93;0.77;;;10.20;99.90;;;;;;4989860;28;20441;-73
2023/12/21 03:29:02;;;;;;;9.75;1.23;;;10.20;99.90;;;;;;5008298;28;20045;-74
2023/12/21 03:31:28;;;;;;;8.18;1.40;;;10.20;99.90;;;;;;4995651;28;20026;-73
2023/12/21 03:33:53;;;;;;;9.50;1.23;;;10.20;99.90;;;;;;4987199;28;20061;-73
2023/12/21 03:36:19;;;;;;;19.08;2.15;;;10.30;99.90;;;;;;4986990;28;20031;-73
2023/12/21 03:38:44;;;;;;;5.20;0.88;;;10.30;99.90;;;;;;4987384;28;20034;-73
2023/12/21 03:41:10;;;;;;;7.88;1.30;;;10.20;99.90;;;;;;4986881;28;20034;-72
2023/12/21 03:43:36;;;;;;;10.57;1.65;;;10.20;99.90;;;;;;4988750;28;20046;-73
2023/12/21 03:46:01;;;;;;;8.25;2.60;;;10.20;99.90;;;;;;4993061;28;20107;-73
2023/12/21 03:48:27;;;;;;;8.65;1.98;;;10.20;99.90;;;;;;5006984;28;20033;-74
2023/12/21 03:50:52;;;;;;;11.52;1.67;;;10.30;99.90;;;;;;4989570;28;20034;-74
2023/12/21 03:53:18;;;;;;;10.48;1.40;;;10.20;99.90;;;;;;4990231;28;20346;-75
2023/12/21 03:55:44;;;;;;;9.23;1.58;;;10.20;99.90;;;;;;4989600;28;20030;-74
2023/12/21 03:58:09;;;;;;;11.95;2.03;;;10.30;99.90;;;;;;4984734;28;20088;-73
2023/12/21 04:00:35;;;;;;;11.52;2.38;;;10.40;99.90;;;;;;4970609;28;20030;-72
2023/12/21 04:03:01;;;;;;;12.15;2.08;;;10.30;99.90;;;;;;4970985;28;20026;-75
2023/12/21 04:05:26;;;;;;;9.85;1.50;;;10.30;99.90;;;;;;4985740;28;20066;-74
2023/12/21 04:07:52;;;;;;;9.82;1.13;;;10.30;99.90;;;;;;4985018;28;20034;-74
2023/12/21 04:10:18;;;;;;;9.38;0.90;;;10.30;99.90;;;;;;4983682;28;20551;-72
2023/12/21 04:12:43;;;;;;;4.60;1.30;;;10.30;99.90;;;;;;5007253;28;20030;-75
2023/12/21 04:15:11;;;;;;;11.00;1.48;;;10.30;99.90;;;;;;4986268;28;20073;-71
2023/12/21 04:17:37;;;;;;;5.22;1.00;;;10.30;99.90;;;;;;5004283;28;20772;-75
2023/12/21 04:20:03;;;;;;;7.15;1.83;;;10.20;99.90;;;;;;4990405;28;20041;-74
2023/12/21 04:22:28;;;;;;;7.53;0.88;;;10.30;99.90;;;;;;5003027;28;20030;-72
2023/12/21 04:24:54;;;;;;;7.40;1.35;;;10.30;99.90;;;;;;5006549;28;20030;-73
2023/12/21 04:27:19;;;;;;;10.35;0.90;;;10.30;99.90;;;;;;4989263;28;20045;-73
2023/12/21 04:29:45;;;;;;;6.32;1.15;;;10.30;99.90;;;;;;4989477;28;20801;-73
2023/12/21 04:32:11;;;;;;;9.02;0.95;;;10.40;99.90;;;;;;4984933;28;20395;-73
2023/12/21 04:34:36;;;;;;;3.60;0.70;;;10.30;99.90;;;;;;4987146;28;20560;-74
2023/12/21 04:37:02;;;;;;;6.13;1.17;;;10.40;99.90;;;;;;4985926;28;20069;-74
2023/12/21 04:39:27;;;;;;;5.20;0.98;;;10.30;99.90;;;;;;4986129;28;20030;-72
2023/12/21 04:41:53;;;;;;;8.73;0.77;;;10.40;99.90;;;;;;4989145;28;20073;-72
2023/12/21 04:44:18;;;;;;;3.67;0.77;;;10.40;99.90;;;;;;4994404;28;20469;-75
2023/12/21 04:46:47;;;;;;;9.90;1.75;;;10.40;99.90;;;;;;4985616;28;20038;-74
2023/12/21 04:49:14;;;;;;;10.27;1.42;;;10.40;99.90;;;;;;4985640;28;20052;-73
2023/12/21 04:51:39;;;;;;;6.57;1.42;;;10.40;99.90;;;;;;4988485;28;20485;-74
2023/12/21 04:54:05;;;;;;;7.95;0.98;;;10.50;99.90;;;;;;4988763;28;20053;-72
2023/12/21 04:56:31;;;;;;;5.88;0.93;;;10.50;99.90;;;;;;4989199;28;20513;-73
2023/12/21 04:58:57;;;;;;;4.18;1.55;;;10.50;99.90;;;;;;4994767;28;20034;-74
2023/12/21 05:01:22;;;;;;;6.07;0.98;;;10.50;99.90;;;;;;4969076;28;20034;-75
2023/12/21 05:03:48;;;;;;;3.45;0.77;;;10.50;99.90;;;;;;4969513;28;20037;-74
2023/12/21 05:06:14;;;;;;;9.38;2.25;;;10.50;99.90;;;;;;4986789;28;20088;-75
2023/12/21 05:08:39;;;;;;;4.05;0.82;;;10.50;99.90;;;;;;4991935;28;20034;-73
2023/12/21 05:11:05;;;;;;;3.17;0.93;;;10.50;99.90;;;;;;5006628;28;20382;-73
2023/12/21 05:13:31;;;;;;;4.72;1.00;;;10.50;99.90;;;;;;5006287;28;20029;-73
2023/12/21 05:15:56;;;;;;;7.15;1.58;;;10.40;99.90;;;;;;4984889;28;20038;-73
2023/12/21 05:18:23;;;;;;;9.63;1.10;;;10.40;99.90;;;;;;4988326;28;20069;-74
2023/12/21 05:20:49;;;;;;;7.30;1.67;;;10.40;99.90;;;;;;5005723;28;20405;-74
2023/12/21 05:23:14;;;;;;;13.25;1.48;;;10.40;99.90;;;;;;4988000;28;20022;-73
2023/12/21 05:25:40;;;;;;;5.57;0.70;;;10.30;99.90;;;;;;4987575;28;20413;-74
2023/12/21 05:28:06;;;;;;;5.53;0.80;;;10.30;99.90;;;;;;4985196;28;20595;-73
2023/12/21 05:30:32;;;;;;;4.80;0.75;;;10.30;99.90;;;;;;4988206;28;20044;-73
2023/12/21 05:32:57;;;;;;;6.65;0.80;;;10.20;99.90;;;;;;4987182;28;20034;-74
2023/12/21 05:35:24;;;;;;;7.38;1.25;;;10.20;99.90;;;;;;4988045;28;20100;-75
2023/12/21 05:37:50;;;;;;;9.23;1.02;;;10.20;99.90;;;;;;4984698;28;20042;-74
2023/12/21 05:40:16;;;;;;;7.90;1.33;;;10.20;99.90;;;;;;4984529;28;20044;-73
2023/12/21 05:42:42;;;;;;;4.75;0.98;;;10.20;99.90;;;;;;4978618;28;20745;-74
2023/12/21 05:45:07;;;;;;;8.57;1.15;;;10.20;99.90;;;;;;4985981;28;20133;-72
2023/12/21 05:47:33;;;;;;;16.63;1.98;;;10.30;99.90;;;;;;4986170;28;20117;-74
2023/12/21 05:49:59;;;;;;;5.63;0.77;;;10.30;99.90;;;;;;4985837;28;20509;-73
2023/12/21 05:52:25;;;;;;;4.82;1.05;;;10.30;99.90;;;;;;4985585;28;20117;-73
2023/12/21 05:54:50;;;;;;;13.18;1.00;;;10.30;99.90;;;;;;4990125;28;20129;-73
2023/12/21 05:57:16;;;;;;;3.88;0.50;;;10.20;99.90;;;;;;4984617;28;20040;-72
2023/12/21 05:59:42;;;;;;;10.30;1.42;;;10.20;99.90;;;;;;4986098;28;20034;-75
2023/12/21 06:02:08;;;;;;;6.05;0.70;;;10.20;99.90;;;;;;4999037;28;20116;-74
2023/12/21 06:04:33;;;;;;;6.97;1.20;;;10.10;99.90;;;;;;5001782;28;20146;-74
2023/12/21 06:06:59;;;;;;;6.22;0.80;;;10.10;99.90;;;;;;4984062;28;20096;-75
2023/12/21 06:09:25;;;;;;;10.55;1.00;;;10.10;99.90;;;;;;4984694;28;20041;-74
2023/12/21 06:11:51;;;;;;;7.05;0.90;;;10.10;99.90;;;;;;4987361;28;20042;-74
2023/12/21 06:14:16;;;;;;;7.03;1.10;;;10.10;99.90;;;;;;4987445;28;20476;-72
2023/12/21 06:16:42;;;;;;;8.95;1.63;;;10.00;99.90;;;;;;5002942;28;20117;-72
2023/12/21 06:19:10;;;;;;;5.85;1.17;;;10.00;99.90;;;;;;4987426;28;20038;-75
2023/12/21 06:21:39;;;;;;;4.63;1.52;;;10.10;99.90;;;;;;4999872;28;20034;-74
2023/12/21 06:24:06;;;;;;;11.02;1.98;;;10.10;99.90;;;;;;4984595;28;20038;-74
2023/12/21 06:26:32;;;;;;;9.38;1.25;;;10.10;99.90;;;;;;4984482;28;20793;-73
2023/12/21 06:28:57;;;;;;;6.65;0.80;;;10.20;99.90;;;;;;4987286;28;20121;-72
2023/12/21 06:31:23;;;;;;;6.65;1.00;;;10.10;99.90;;;;;;4983739;28;20173;-76
2023/12/21 06:33:49;;;;;;;7.25;1.40;;;10.10;99.90;;;;;;4987164;28;20045;-72
2023/12/21 06:36:15;;;;;;;6.25;1.38;;;10.10;99.90;;;;;;4998485;28;20026;-72
2023/12/21 06:38:40;;;;;;;16.70;1.30;;;10.10;99.90;;;;;;4984063;28;20046;-73
2023/12/21 06:41:06;;;;;;;9.93;1.00;;;10.10;99.90;;;;;;4984324;28;20029;-73
2023/12/21 06:43:31;;;;;;;9.40;1.13;;;10.10;99.90;;;;;;4984908;28;20383;-72
2023/12/21 06:45:57;;;;;;;12.48;2.05;;;10.20;99.90;;;;;;4976542;28;20066;-75
2023/12/21 06:48:23;;;;;;;9.00;1.42;;;10.20;99.90;;;;;;4983866;28;20030;-72
2023/12/21 06:50:48;;;;;;;7.85;0.80;;;10.20;99.90;;;;;;4984414;28;20026;-74
2023/12/21 06:53:15;;;;;;;5.45;1.05;;;10.20;99.90;;;;;;4995908;28;20577;-75
2023/12/21 06:55:44;;;;;;;6.63;1.23;;;10.30;99.90;;;;;;4987152;28;20040;-73
2023/12/21 06:58:10;;;;;;;4.50;0.70;;;10.20;99.90;;;;;;4985004;28;20042;-73
2023/12/21 07:00:35;;;;;;;1.35;0.50;;;10.30;99.90;;;;;;4971698;28;20034;-73
2023/12/21 07:03:01;;;;;;;7.35;1.13;;;10.30;99.90;;;;;;4971582;28;20473;-72
2023/12/21 07:05:27;;;;;;;9.65;0.85;;;10.40;99.90;;;;;;4989513;28;20038;-73
2023/12/21 07:07:55;;;;;;;11.40;2.60;;;10.50;99.90;;;;;;4988367;28;20060;-74
2023/12/21 07:10:21;;;;;;;2.40;0.47;;;10.50;99.90;;;;;;4969737;28;20061;-75
2023/12/21 07:12:47;;;;;;;17.25;3.05;;;10.50;99.90;;;;;;5007156;28;20066;-74
2023/12/21 07:15:13;;;;;;;15.80;1.67;;;10.40;99.90;;;;;;4992127;28;20045;-73
2023/12/21 07:17:39;;;;;;;8.23;0.47;;;10.30;99.90;;;;;;5004436;28;20087;-74
2023/12/21 07:20:05;;;;;;;5.47;1.23;;;10.30;99.90;;;;;;4987551;28;20491;-74
2023/12/21 07:22:30;;;;;;;10.50;1.90;;;10.20;99.90;;;;;;4987047;28;20042;-75
2023/12/21 07:24:56;;;;;;;11.95;1.25;;;10.20;99.90;;;;;;4970920;28;20438;-73
2023/12/21 07:27:22;;;;;;;5.35;1.08;;;10.10;99.90;;;;;;4970704;28;20487;-74
2023/12/21 07:29:49;;;;;;;7.95;0.73;;;10.10;99.90;;;;;;4992450;28;20045;-73
2023/12/21 07:32:15;;;;;;;7.38;0.65;;;10.10;99.90;;;;;;4973742;28;20383;-74
2023/12/21 07:34:41;;;;;;;7.70;0.82;;;10.10;99.90;;;;;;4989123;28;20034;-74
2023/12/21 07:37:08;;;;;;;13.85;1.95;;;10.00;99.90;;;;;;4986025;28;20026;-73
2023/12/21 07:39:34;;;;;;;7.65;1.20;;;10.00;99.90;;;;;;4987811;28;20037;-76
2023/12/21 07:42:00;;;;;;;8.93;1.08;;;10.00;99.90;;;;;;4987984;28;20030;-74
2023/12/21 07:44:25;;;;;;;20.60;2.25;;;10.00;99.90;;;;;;4990852;28;20074;-73
2023/12/21 07:46:51;;;;;;;20.05;1.30;;;10.00;99.90;;;;;;4985333;28;20045;-75
2023/12/21 07:49:17;;;;;;;7.82;0.82;;;10.00;99.90;;;;;;5006560;28;20059;-75
2023/12/21 07:51:42;;;;;;;7.15;1.15;;;10.00;99.90;;;;;;4993087;28;20054;-74
2023/12/21 07:54:08;;;;;;;5.15;0.73;;;10.00;99.90;;;;;;4975655;28;20056;-73
2023/12/21 07:56:33;;;;;;;12.18;1.42;;;10.00;99.90;;;;;;4989367;28;20037;-73
2023/12/21 07:59:04;;;;;;;3.80;0.82;;;10.00;99.90;;;;;;4999618;28;20516;-75
2023/12/21 08:01:30;;;;;;;;;;;10.00;99.90;;;;;;4989055;28;20173;-75
2023/12/21 08:03:56;;;;;;;4.82;1.23;;;9.90;99.90;;;;;;4988334;28;20335;-73
2023/12/21 08:06:22;;;;;;;5.35;1.13;;;10.00;99.90;;;;;;5002373;28;20030;-75
2023/12/21 08:08:48;;;;;;;4.68;1.50;;;9.90;99.90;;;;;;4968625;28;20044;-73
2023/12/21 08:11:15;;;;;;;10.30;1.00;;;10.00;99.90;;;;;;4968126;28;21023;-75
2023/12/21 08:13:40;;;;;;;8.95;1.63;;;9.90;99.90;;;;;;4968462;28;20034;-74
2023/12/21 08:16:07;;;;;;;5.22;0.88;;;10.00;99.90;;;;;;5005394;28;20473;-75
2023/12/21 08:18:32;;;;;;;8.60;0.95;;;10.00;99.90;;;;;;4988484;28;20040;-75
2023/12/21 08:20:58;;;;;;;7.30;1.52;;;10.00;99.90;;;;;;4987979;28;20033;-73
2023/12/21 08:23:23;;;;;;;6.70;1.58;;;10.00;99.90;;;;;;4988685;28;20121;-73
2023/12/21 08:25:49;;;;;;;10.20;0.90;;;10.00;99.90;;;;;;5005038;28;20057;-73
2023/12/21 08:36:02;;;;;;;17.23;2.22;;;10.00;99.90;;;;;;5793361;22;20131;-77
2023/12/21 08:38:27;;;;;;;7.88;1.90;;;10.10;99.90;;;;;;4979366;28;20438;-76
2023/12/21 08:40:53;;;;;;;13.20;1.60;;;10.10;99.90;;;;;;4981227;28;20057;-78
2023/12/21 08:43:18;;;;;;;9.07;1.13;;;10.10;99.90;;;;;;4975055;28;20031;-78
2023/12/21 08:45:44;;;;;;;6.35;0.68;;;10.10;99.90;;;;;;4980448;28;20069;-79
2023/12/21 08:48:10;;;;;;;9.98;0.70;;;10.10;99.90;;;;;;4972533;28;20054;-76
2023/12/21 08:50:35;;;;;;;7.53;1.35;;;10.10;99.90;;;;;;4990253;28;20066;-77
2023/12/21 08:53:02;;;;;;;12.68;2.13;;;10.20;99.90;;;;;;4990414;28;20034;-79
2023/12/21 08:55:29;;;;;;;12.80;0.90;;;10.20;99.90;;;;;;4982001;28;20057;-76
2023/12/21 08:57:56;;;;;;;3.17;0.68;;;10.20;99.90;;;;;;4990752;28;20042;-77
2023/12/21 09:00:21;;;;;;;6.22;0.60;;;10.30;99.90;;;;;;4978994;28;20034;-79
2023/12/21 09:02:47;;;;;;;8.63;0.73;;;10.30;99.90;;;;;;4984218;28;20355;-75
2023/12/21 09:05:13;;;;;;;8.85;1.77;;;10.40;99.90;;;;;;4992108;28;20046;-81
2023/12/21 09:07:39;;;;;;;5.32;0.50;;;10.40;99.90;;;;;;4975474;28;20129;-77
2023/12/21 09:10:06;;;;;;;5.13;1.67;;;10.30;99.90;;;;;;4996082;28;20034;-78
2023/12/21 09:12:32;;;;;;;6.30;1.13;;;10.30;99.90;;;;;;4980225;28;20038;-78
2023/12/21 09:14:57;;;;;;;8.55;1.70;;;10.40;99.90;;;;;;4974055;28;20507;-78
2023/12/21 09:17:23;;;;;;;10.77;1.38;;;10.40;99.90;;;;;;4965842;28;20110;-77
2023/12/21 09:19:48;;;;;;;12.27;1.00;;;10.30;99.90;;;;;;4960052;28;20035;-77
2023/12/21 09:22:14;;;;;;;18.02;2.42;;;10.40;99.90;;;;;;4972865;28;20216;-74
2023/12/21 09:24:40;;;;;;;10.73;1.50;;;10.50;99.90;;;;;;4971425;28;20053;-77
2023/12/21 09:27:05;;;;;;;12.38;0.88;;;10.50;99.90;;;;;;4961812;28;20061;-78
2023/12/21 09:29:31;;;;;;;9.57;1.38;;;10.50;99.90;;;;;;4980468;28;20034;-76
2023/12/21 09:31:57;;;;;;;8.00;0.80;;;10.50;99.90;;;;;;4962429;28;20042;-79
2023/12/21 09:34:22;;;;;;;7.65;1.08;;;10.50;99.90;;;;;;4960796;28;20103;-77
2023/12/21 09:36:48;;;;;;;16.35;0.85;;;10.60;99.90;;;;;;4978514;28;20046;-79
2023/12/21 09:39:14;;;;;;;8.13;2.00;;;10.60;99.90;;;;;;4978097;28;20043;-76
2023/12/21 09:41:40;;;;;;;6.30;1.05;;;10.70;99.90;;;;;;4978312;28;20140;-77
2023/12/21 09:44:06;;;;;;;5.30;1.50;;;10.70;99.90;;;;;;4958800;28;20127;-76
2023/12/21 09:46:39;;;;;;;10.00;1.02;;;10.70;99.90;;;;;;4967581;28;20617;-79
2023/12/21 09:49:09;;;;;;;5.47;1.20;;;10.70;99.90;;;;;;4972597;28;20503;-76
2023/12/21 09:51:36;;;;;;;;;;;10.70;99.90;;;;;;4969420;28;20380;-77
2023/12/21 09:54:02;;;;;;;3.50;0.68;;;10.80;99.90;;;;;;4951315;28;19940;-77
2023/12/21 09:56:28;;;;;;;3.60;0.60;;;10.80;99.90;;;;;;4976637;28;20027;-78
2023/12/21 09:58:58;;;;;;;7.40;1.25;;;10.80;99.90;;;;;;4974080;28;20070;-75
2023/12/21 10:01:24;;;;;;;9.33;0.67;;;10.80;99.90;;;;;;4969144;28;20045;-76
2023/12/21 10:03:49;;;;;;;5.78;0.40;;;10.80;99.90;;;;;;4984611;28;20723;-77
2023/12/21 10:06:16;;;;;;;5.53;0.55;;;10.80;99.90;;;;;;4975817;28;20089;-77
2023/12/21 10:08:42;;;;;;;6.70;1.15;;;10.90;99.90;;;;;;4959859;28;20491;-74
2023/12/21 10:11:08;;;;;;;8.23;1.02;;;10.90;99.90;;;;;;4970316;28;20482;-76
2023/12/21 10:13:37;;;;;;;9.93;1.55;;;10.90;99.90;;;;;;4969886;28;20042;-76
2023/12/21 10:16:03;;;;;;;6.85;0.60;;;11.00;99.90;;;;;;4984095;28;20034;-77
2023/12/21 10:18:29;;;;;;;5.35;0.70;;;11.00;99.90;;;;;;4975626;28;20042;-77
2023/12/21 10:20:59;;;;;;;2.72;0.40;;;11.00;99.90;;;;;;4969116;28;20108;-77
2023/12/21 10:23:25;;;;;;;6.35;1.00;;;11.10;99.90;;;;;;4973319;28;20026;-76
2023/12/21 10:25:52;;;;;;;5.45;1.15;;;11.10;99.90;;;;;;4987417;28;20777;-77
2023/12/21 10:28:22;;;;;;;6.32;1.20;;;11.20;99.90;;;;;;4978709;28;20038;-77
2023/12/21 10:30:56;;;;;;;7.25;1.27;;;11.30;99.90;;;;;;4965025;28;20035;-76
2023/12/21 10:33:22;;;;;;;4.50;0.40;;;11.30;99.90;;;;;;4970448;28;20034;-76
2023/12/21 10:35:47;;;;;;;4.00;0.73;;;11.30;99.90;;;;;;4933500;28;1075528;-77
2023/12/21 10:38:14;;;;;;;3.75;0.50;;;11.40;99.90;;;;;;4972194;28;20456;-77
2023/12/21 10:40:44;;;;;;;3.80;0.68;;;11.40;99.90;;;;;;4978054;28;20035;-78
2023/12/21 10:43:10;;;;;;;7.88;1.73;;;11.30;99.90;;;;;;4970477;28;20070;-77
2023/12/21 10:45:36;;;;;;;6.40;0.80;;;11.30;99.90;;;;;;4963735;28;20062;-75
2023/12/21 10:48:11;;;;;;;5.72;0.45;;;11.30;99.90;;;;;;4983555;28;20038;-75
2023/12/21 10:50:37;;;;;;;5.68;0.82;;;11.20;99.90;;;;;;4978534;28;20034;-76
2023/12/21 10:53:04;;;;;;;5.13;1.00;;;11.20;99.90;;;;;;4982017;28;20031;-76
2023/12/21 10:55:31;;;;;;;6.68;0.60;;;11.20;99.90;;;;;;4989858;28;20049;-77
2023/12/21 10:57:57;;;;;;;16.33;1.42;;;11.20;99.90;;;;;;4975141;28;20097;-77
2023/12/21 11:00:24;;;;;;;7.00;0.55;;;11.20;99.90;;;;;;4992976;28;20042;-78
2023/12/21 11:02:49;;;;;;;10.02;1.25;;;11.20;99.90;;;;;;4978467;28;20042;-78
2023/12/21 11:05:26;;;;;;;7.10;1.00;;;11.30;99.90;;;;;;4981109;28;20039;-77
2023/12/21 11:07:54;;;;;;;5.25;0.90;;;11.30;99.90;;;;;;4982953;28;20034;-78
2023/12/21 11:10:23;;;;;;;8.98;1.27;;;11.30;99.90;;;;;;4983367;28;20050;-76
2023/12/21 11:12:50;;;;;;;6.40;0.85;;;11.20;99.90;;;;;;4984025;28;20039;-78
2023/12/21 11:15:18;;;;;;;2.67;0.70;;;11.20;99.90;;;;;;4993651;28;20043;-77
2023/12/21 11:17:49;;;;;;;8.13;1.27;;;11.30;99.90;;;;;;4984964;28;20542;-77
2023/12/21 11:20:20;;;;;;;4.97;0.75;;;11.30;99.90;;;;;;4982322;28;20682;-73
2023/12/21 11:22:46;;;;;;;5.28;0.65;;;11.30;99.90;;;;;;4983986;28;20105;-75
2023/12/21 11:25:12;;;;;;;6.85;0.60;;;11.40;99.90;;;;;;4993976;28;20027;-78
2023/12/21 11:27:41;;;;;;;9.93;0.80;;;11.30;99.90;;;;;;4979989;28;20066;-77
2023/12/21 11:30:10;;;;;;;12.82;1.90;;;11.30;99.90;;;;;;4981258;28;20041;-78
2023/12/21 11:32:43;;;;;;;4.97;0.50;;;11.30;99.90;;;;;;4979097;28;20758;-76
2023/12/21 11:35:23;;;;;;;3.83;0.50;;;11.30;99.90;;;;;;4985526;28;20034;-77
2023/12/21 11:37:51;;;;;;;7.43;1.77;;;11.30;99.90;;;;;;4976553;28;20043;-77
2023/12/21 11:40:19;;;;;;;5.75;0.80;;;11.30;99.90;;;;;;4990515;28;20031;-77
2023/12/21 11:42:47;;;;;;;5.28;0.73;;;11.30;99.90;;;;;;4965228;28;20200;-77
2023/12/21 11:45:23;;;;;;;2.50;0.40;;;11.30;99.90;;;;;;4976585;28;20031;-76
2023/12/21 11:47:50;;;;;;;3.70;0.32;;;11.20;99.90;;;;;;4976481;28;20031;-77
2023/12/21 11:50:19;;;;;;;10.10;1.00;;;11.20;99.90;;;;;;4975445;28;20094;-76
2023/12/21 11:52:44;;;;;;;9.00;0.82;;;11.30;99.90;;;;;;4964998;28;20479;-77
2023/12/21 11:55:10;;;;;;;7.70;0.82;;;11.20;99.90;;;;;;4976237;28;20043;-77
2023/12/21 11:57:41;;;;;;;6.07;0.63;;;11.30;99.90;;;;;;4982459;28;20737;-77
2023/12/21 12:00:18;;;;;;;5.30;0.57;;;11.20;99.90;;;;;;4986367;28;20037;-77
2023/12/21 12:02:44;;;;;;;11.10;1.38;;;11.20;99.90;;;;;;4977402;28;20039;-76
2023/12/21 12:05:22;;;;;;;4.70;1.02;;;11.20;99.90;;;;;;4993328;28;20034;-75
2023/12/21 12:07:48;;;;;;;8.95;0.68;;;11.20;99.90;;;;;;4977231;28;20046;-76
2023/12/21 12:10:14;;;;;;;5.97;0.50;;;11.30;99.90;;;;;;4988099;28;20450;-76
2023/12/21 12:12:41;;;;;;;5.65;2.20;;;11.30;99.90;;;;;;4976349;28;20125;-77
2023/12/21 12:15:07;;;;;;;5.18;0.95;;;11.20;99.90;;;;;;4977293;28;20125;-76
2023/12/21 12:17:42;;;;;;;7.53;0.60;;;11.30;99.90;;;;;;4990055;28;20055;-76
2023/12/21 12:20:11;;;;;;;6.60;0.80;;;11.30;99.90;;;;;;4968448;28;20441;-77
2023/12/21 12:22:37;;;;;;;6.85;1.73;;;11.40;99.90;;;;;;4986164;28;20054;-75
2023/12/21 12:25:05;;;;;;;9.48;1.30;;;11.50;99.90;;;;;;4988963;28;20042;-76
2023/12/21 12:27:30;;;;;;;4.38;0.60;;;11.50;99.90;;;;;;4997142;28;20188;-75
2023/12/21 12:29:57;;;;;;;6.70;0.85;;;11.60;99.90;;;;;;4992874;28;20055;-76
2023/12/21 12:32:23;;;;;;;3.40;1.17;;;11.50;99.90;;;;;;4983335;28;20037;-76
2023/12/21 12:34:48;;;;;;;4.20;1.65;;;11.40;99.90;;;;;;4979221;28;20041;-77
2023/12/21 12:37:17;;;;;;;7.15;0.88;;;11.40;99.90;;;;;;4969617;28;20303;-76
2023/12/21 12:39:45;;;;;;;8.65;1.45;;;11.40;99.90;;;;;;4969457;28;20035;-77
2023/12/21 12:42:11;;;;;;;5.18;0.60;;;11.30;99.90;;;;;;4976320;28;20055;-76
2023/12/21 12:44:36;;;;;;;8.55;1.30;;;11.30;99.90;;;;;;4982798;28;20066;-77
2023/12/21 12:47:04;;;;;;;6.05;0.60;;;11.30;99.90;;;;;;4980847;28;20077;-78
2023/12/21 12:49:34;;;;;;;4.63;0.70;;;11.30;99.90;;;;;;4983667;28;20085;-77